sensor_id;sensor_type;location;lat;lon;timestamp;P1;durP1;ratioP1;P2;durP2;ratioP2
68989;SDS011;56046;47.270;11.368;2022-08-05T00:02:02;8.30;;;4.80;;
68989;SDS011;56046;47.270;11.368;2022-08-05T00:04:27;6.70;;;4.90;;
68989;SDS011;56046;47.270;11.368;2022-08-05T00:06:52;8.20;;;4.30;;
68989;SDS011;56046;47.270;11.368;2022-08-05T00:09:18;6.33;;;4.23;;
68989;SDS011;56046;47.270;11.368;2022-08-05T00:11:43;8.73;;;4.93;;
68989;SDS011;56046;47.270;11.368;2022-08-05T00:14:08;7.33;;;4.60;;
68989;SDS011;56046;47.270;11.368;2022-08-05T00:16:35;6.27;;;4.13;;
68989;SDS011;56046;47.270;11.368;2022-08-05T00:19:00;6.18;;;3.92;;
68989;SDS011;56046;47.270;11.368;2022-08-05T00:21:25;6.73;;;3.60;;
68989;SDS011;56046;47.270;11.368;2022-08-05T00:23:51;7.63;;;4.63;;
68989;SDS011;56046;47.270;11.368;2022-08-05T00:26:16;6.60;;;4.20;;
68989;SDS011;56046;47.270;11.368;2022-08-05T00:28:41;6.77;;;4.33;;
68989;SDS011;56046;47.270;11.368;2022-08-05T00:31:07;5.47;;;4.10;;
68989;SDS011;56046;47.270;11.368;2022-08-05T00:33:33;6.00;;;3.83;;
68989;SDS011;56046;47.270;11.368;2022-08-05T00:35:58;5.97;;;3.90;;
68989;SDS011;56046;47.270;11.368;2022-08-05T00:38:23;6.27;;;3.50;;
68989;SDS011;56046;47.270;11.368;2022-08-05T00:40:50;6.70;;;3.93;;
68989;SDS011;56046;47.270;11.368;2022-08-05T00:43:15;6.55;;;4.43;;
68989;SDS011;56046;47.270;11.368;2022-08-05T00:45:41;5.20;;;3.57;;
68989;SDS011;56046;47.270;11.368;2022-08-05T00:48:08;8.18;;;4.10;;
68989;SDS011;56046;47.270;11.368;2022-08-05T00:50:33;6.27;;;3.80;;
68989;SDS011;56046;47.270;11.368;2022-08-05T00:52:59;6.03;;;3.67;;
68989;SDS011;56046;47.270;11.368;2022-08-05T00:55:24;6.77;;;3.50;;
68989;SDS011;56046;47.270;11.368;2022-08-05T00:57:49;6.40;;;3.83;;
68989;SDS011;56046;47.270;11.368;2022-08-05T01:00:14;6.80;;;4.23;;
68989;SDS011;56046;47.270;11.368;2022-08-05T01:02:40;5.83;;;3.90;;
68989;SDS011;56046;47.270;11.368;2022-08-05T01:05:05;7.37;;;4.47;;
68989;SDS011;56046;47.270;11.368;2022-08-05T01:07:30;5.53;;;4.07;;
68989;SDS011;56046;47.270;11.368;2022-08-05T01:09:56;5.70;;;3.80;;
68989;SDS011;56046;47.270;11.368;2022-08-05T01:12:21;7.07;;;3.55;;
68989;SDS011;56046;47.270;11.368;2022-08-05T01:14:50;6.47;;;4.13;;
68989;SDS011;56046;47.270;11.368;2022-08-05T01:17:28;7.20;;;4.10;;
68989;SDS011;56046;47.270;11.368;2022-08-05T01:19:59;5.47;;;3.50;;
68989;SDS011;56046;47.270;11.368;2022-08-05T01:22:53;5.70;;;4.28;;
68989;SDS011;56046;47.270;11.368;2022-08-05T01:30:25;5.40;;;3.53;;
68989;SDS011;56046;47.270;11.368;2022-08-05T01:32:51;7.78;;;3.95;;
68989;SDS011;56046;47.270;11.368;2022-08-05T01:35:18;6.10;;;4.40;;
68989;SDS011;56046;47.270;11.368;2022-08-05T01:37:48;5.57;;;3.20;;
68989;SDS011;56046;47.270;11.368;2022-08-05T01:40:14;7.03;;;4.10;;
68989;SDS011;56046;47.270;11.368;2022-08-05T01:42:41;5.80;;;3.50;;
68989;SDS011;56046;47.270;11.368;2022-08-05T01:45:08;6.38;;;4.00;;
68989;SDS011;56046;47.270;11.368;2022-08-05T01:47:34;5.00;;;3.40;;
68989;SDS011;56046;47.270;11.368;2022-08-05T01:50:02;6.13;;;3.60;;
68989;SDS011;56046;47.270;11.368;2022-08-05T01:52:28;5.35;;;3.83;;
68989;SDS011;56046;47.270;11.368;2022-08-05T01:54:58;4.60;;;3.50;;
68989;SDS011;56046;47.270;11.368;2022-08-05T01:57:27;5.15;;;3.42;;
68989;SDS011;56046;47.270;11.368;2022-08-05T01:59:53;5.13;;;3.47;;
68989;SDS011;56046;47.270;11.368;2022-08-05T02:02:21;5.77;;;3.97;;
68989;SDS011;56046;47.270;11.368;2022-08-05T02:04:47;6.07;;;4.00;;
68989;SDS011;56046;47.270;11.368;2022-08-05T02:07:13;5.97;;;3.15;;
68989;SDS011;56046;47.270;11.368;2022-08-05T02:09:39;6.17;;;3.67;;
68989;SDS011;56046;47.270;11.368;2022-08-05T02:12:10;7.80;;;3.57;;
68989;SDS011;56046;47.270;11.368;2022-08-05T02:14:42;5.40;;;3.38;;
68989;SDS011;56046;47.270;11.368;2022-08-05T02:17:15;5.07;;;3.65;;
68989;SDS011;56046;47.270;11.368;2022-08-05T02:19:42;6.10;;;3.47;;
68989;SDS011;56046;47.270;11.368;2022-08-05T02:25:19;5.23;;;3.00;;
68989;SDS011;56046;47.270;11.368;2022-08-05T02:27:46;4.63;;;3.00;;
68989;SDS011;56046;47.270;11.368;2022-08-05T02:30:13;5.88;;;2.95;;
68989;SDS011;56046;47.270;11.368;2022-08-05T02:32:39;6.53;;;2.80;;
68989;SDS011;56046;47.270;11.368;2022-08-05T02:35:07;5.50;;;3.22;;
68989;SDS011;56046;47.270;11.368;2022-08-05T02:37:34;5.53;;;3.27;;
68989;SDS011;56046;47.270;11.368;2022-08-05T02:40:01;5.30;;;3.28;;
68989;SDS011;56046;47.270;11.368;2022-08-05T02:42:26;4.43;;;2.88;;
68989;SDS011;56046;47.270;11.368;2022-08-05T02:44:52;4.85;;;3.30;;
68989;SDS011;56046;47.270;11.368;2022-08-05T02:47:19;6.07;;;3.00;;
68989;SDS011;56046;47.270;11.368;2022-08-05T02:49:45;5.33;;;2.90;;
68989;SDS011;56046;47.270;11.368;2022-08-05T02:52:14;5.60;;;2.75;;
68989;SDS011;56046;47.270;11.368;2022-08-05T02:54:41;6.60;;;3.20;;
68989;SDS011;56046;47.270;11.368;2022-08-05T02:57:07;4.00;;;3.07;;
68989;SDS011;56046;47.270;11.368;2022-08-05T02:59:34;4.35;;;3.15;;
68989;SDS011;56046;47.270;11.368;2022-08-05T03:01:59;4.68;;;3.05;;
68989;SDS011;56046;47.270;11.368;2022-08-05T03:04:25;5.03;;;3.10;;
68989;SDS011;56046;47.270;11.368;2022-08-05T03:06:51;5.03;;;3.58;;
68989;SDS011;56046;47.270;11.368;2022-08-05T03:09:16;5.17;;;3.30;;
68989;SDS011;56046;47.270;11.368;2022-08-05T03:11:42;6.30;;;3.37;;
68989;SDS011;56046;47.270;11.368;2022-08-05T03:14:10;4.07;;;2.67;;
68989;SDS011;56046;47.270;11.368;2022-08-05T03:16:35;4.87;;;3.13;;
68989;SDS011;56046;47.270;11.368;2022-08-05T03:19:00;5.80;;;3.40;;
68989;SDS011;56046;47.270;11.368;2022-08-05T03:21:26;6.13;;;3.20;;
68989;SDS011;56046;47.270;11.368;2022-08-05T03:23:51;5.33;;;3.27;;
68989;SDS011;56046;47.270;11.368;2022-08-05T03:26:17;4.73;;;3.07;;
68989;SDS011;56046;47.270;11.368;2022-08-05T03:28:42;6.32;;;3.28;;
68989;SDS011;56046;47.270;11.368;2022-08-05T03:31:07;4.97;;;3.50;;
68989;SDS011;56046;47.270;11.368;2022-08-05T03:33:33;4.37;;;2.87;;
68989;SDS011;56046;47.270;11.368;2022-08-05T03:35:58;5.40;;;2.93;;
68989;SDS011;56046;47.270;11.368;2022-08-05T03:38:24;4.13;;;2.78;;
68989;SDS011;56046;47.270;11.368;2022-08-05T03:40:50;5.50;;;3.40;;
68989;SDS011;56046;47.270;11.368;2022-08-05T03:43:17;6.03;;;2.88;;
68989;SDS011;56046;47.270;11.368;2022-08-05T03:45:43;6.20;;;3.38;;
68989;SDS011;56046;47.270;11.368;2022-08-05T03:48:08;4.73;;;3.17;;
68989;SDS011;56046;47.270;11.368;2022-08-05T03:51:07;4.83;;;3.40;;
68989;SDS011;56046;47.270;11.368;2022-08-05T03:53:44;5.07;;;3.40;;
68989;SDS011;56046;47.270;11.368;2022-08-05T03:58:47;5.30;;;2.92;;
68989;SDS011;56046;47.270;11.368;2022-08-05T04:01:12;6.03;;;3.27;;
68989;SDS011;56046;47.270;11.368;2022-08-05T04:03:38;10.07;;;4.22;;
68989;SDS011;56046;47.270;11.368;2022-08-05T04:06:06;4.53;;;3.03;;
68989;SDS011;56046;47.270;11.368;2022-08-05T04:08:31;4.07;;;2.90;;
68989;SDS011;56046;47.270;11.368;2022-08-05T04:10:57;5.00;;;3.45;;
68989;SDS011;56046;47.270;11.368;2022-08-05T04:13:23;4.97;;;3.30;;
68989;SDS011;56046;47.270;11.368;2022-08-05T04:15:49;5.90;;;3.00;;
68989;SDS011;56046;47.270;11.368;2022-08-05T04:18:14;5.20;;;2.93;;
68989;SDS011;56046;47.270;11.368;2022-08-05T04:20:40;6.40;;;3.03;;
68989;SDS011;56046;47.270;11.368;2022-08-05T04:23:05;5.30;;;3.30;;
68989;SDS011;56046;47.270;11.368;2022-08-05T04:25:31;6.30;;;3.50;;
68989;SDS011;56046;47.270;11.368;2022-08-05T04:27:56;4.10;;;3.13;;
68989;SDS011;56046;47.270;11.368;2022-08-05T04:30:21;5.17;;;3.13;;
68989;SDS011;56046;47.270;11.368;2022-08-05T04:32:46;4.43;;;3.20;;
68989;SDS011;56046;47.270;11.368;2022-08-05T04:35:12;5.70;;;3.30;;
68989;SDS011;56046;47.270;11.368;2022-08-05T04:37:37;4.70;;;3.03;;
68989;SDS011;56046;47.270;11.368;2022-08-05T04:40:02;5.23;;;3.50;;
68989;SDS011;56046;47.270;11.368;2022-08-05T04:42:28;5.40;;;3.30;;
68989;SDS011;56046;47.270;11.368;2022-08-05T04:44:53;6.07;;;3.57;;
68989;SDS011;56046;47.270;11.368;2022-08-05T04:47:18;5.23;;;3.47;;
68989;SDS011;56046;47.270;11.368;2022-08-05T04:49:44;7.73;;;3.47;;
68989;SDS011;56046;47.270;11.368;2022-08-05T04:52:09;4.63;;;3.43;;
68989;SDS011;56046;47.270;11.368;2022-08-05T04:54:34;4.37;;;3.30;;
68989;SDS011;56046;47.270;11.368;2022-08-05T04:56:59;5.60;;;3.47;;
68989;SDS011;56046;47.270;11.368;2022-08-05T04:59:25;5.33;;;3.60;;
68989;SDS011;56046;47.270;11.368;2022-08-05T05:01:50;4.70;;;3.53;;
68989;SDS011;56046;47.270;11.368;2022-08-05T05:04:16;6.60;;;3.33;;
68989;SDS011;56046;47.270;11.368;2022-08-05T05:06:41;4.63;;;3.20;;
68989;SDS011;56046;47.270;11.368;2022-08-05T05:09:06;5.30;;;3.60;;
68989;SDS011;56046;47.270;11.368;2022-08-05T05:11:32;5.23;;;3.60;;
68989;SDS011;56046;47.270;11.368;2022-08-05T05:13:57;5.63;;;3.53;;
68989;SDS011;56046;47.270;11.368;2022-08-05T05:16:22;6.43;;;3.63;;
68989;SDS011;56046;47.270;11.368;2022-08-05T05:18:47;4.80;;;3.20;;
68989;SDS011;56046;47.270;11.368;2022-08-05T05:21:13;6.37;;;3.47;;
68989;SDS011;56046;47.270;11.368;2022-08-05T05:23:38;4.57;;;3.43;;
68989;SDS011;56046;47.270;11.368;2022-08-05T05:26:03;7.10;;;3.43;;
68989;SDS011;56046;47.270;11.368;2022-08-05T05:28:28;6.50;;;3.60;;
68989;SDS011;56046;47.270;11.368;2022-08-05T05:30:54;6.33;;;3.80;;
68989;SDS011;56046;47.270;11.368;2022-08-05T05:33:19;4.60;;;3.70;;
68989;SDS011;56046;47.270;11.368;2022-08-05T05:35:44;5.27;;;3.37;;
68989;SDS011;56046;47.270;11.368;2022-08-05T05:38:10;6.37;;;3.90;;
68989;SDS011;56046;47.270;11.368;2022-08-05T05:40:35;7.47;;;4.13;;
68989;SDS011;56046;47.270;11.368;2022-08-05T05:43:01;6.03;;;3.80;;
68989;SDS011;56046;47.270;11.368;2022-08-05T05:45:32;6.90;;;3.53;;
68989;SDS011;56046;47.270;11.368;2022-08-05T05:47:58;4.70;;;3.50;;
68989;SDS011;56046;47.270;11.368;2022-08-05T05:50:23;6.30;;;3.70;;
68989;SDS011;56046;47.270;11.368;2022-08-05T05:52:48;5.60;;;3.50;;
68989;SDS011;56046;47.270;11.368;2022-08-05T05:55:14;5.77;;;3.63;;
68989;SDS011;56046;47.270;11.368;2022-08-05T05:57:41;5.28;;;3.50;;
68989;SDS011;56046;47.270;11.368;2022-08-05T06:00:08;6.53;;;3.53;;
68989;SDS011;56046;47.270;11.368;2022-08-05T06:02:34;4.85;;;3.50;;
68989;SDS011;56046;47.270;11.368;2022-08-05T06:05:00;4.30;;;3.20;;
68989;SDS011;56046;47.270;11.368;2022-08-05T06:07:25;5.50;;;3.60;;
68989;SDS011;56046;47.270;11.368;2022-08-05T06:09:50;6.80;;;3.77;;
68989;SDS011;56046;47.270;11.368;2022-08-05T06:12:15;5.93;;;3.10;;
68989;SDS011;56046;47.270;11.368;2022-08-05T06:14:41;5.63;;;4.13;;
68989;SDS011;56046;47.270;11.368;2022-08-05T06:17:09;6.78;;;3.80;;
68989;SDS011;56046;47.270;11.368;2022-08-05T06:19:34;7.70;;;3.80;;
68989;SDS011;56046;47.270;11.368;2022-08-05T06:22:00;4.95;;;3.70;;
68989;SDS011;56046;47.270;11.368;2022-08-05T06:24:25;5.60;;;3.87;;
68989;SDS011;56046;47.270;11.368;2022-08-05T06:26:50;6.43;;;4.00;;
68989;SDS011;56046;47.270;11.368;2022-08-05T06:29:16;6.10;;;3.73;;
68989;SDS011;56046;47.270;11.368;2022-08-05T06:31:41;5.53;;;4.23;;
68989;SDS011;56046;47.270;11.368;2022-08-05T06:34:06;6.10;;;3.67;;
68989;SDS011;56046;47.270;11.368;2022-08-05T06:36:31;5.23;;;3.20;;
68989;SDS011;56046;47.270;11.368;2022-08-05T06:38:57;7.37;;;4.13;;
68989;SDS011;56046;47.270;11.368;2022-08-05T06:41:22;6.53;;;3.67;;
68989;SDS011;56046;47.270;11.368;2022-08-05T06:43:47;6.67;;;4.10;;
68989;SDS011;56046;47.270;11.368;2022-08-05T06:46:13;5.90;;;3.97;;
68989;SDS011;56046;47.270;11.368;2022-08-05T06:48:39;6.38;;;3.92;;
68989;SDS011;56046;47.270;11.368;2022-08-05T06:51:04;8.00;;;4.60;;
68989;SDS011;56046;47.270;11.368;2022-08-05T06:53:29;6.27;;;3.93;;
68989;SDS011;56046;47.270;11.368;2022-08-05T06:55:58;6.53;;;3.70;;
68989;SDS011;56046;47.270;11.368;2022-08-05T06:58:24;6.85;;;4.00;;
68989;SDS011;56046;47.270;11.368;2022-08-05T07:00:49;6.53;;;4.10;;
68989;SDS011;56046;47.270;11.368;2022-08-05T07:03:15;5.80;;;3.73;;
68989;SDS011;56046;47.270;11.368;2022-08-05T07:05:40;5.00;;;4.00;;
68989;SDS011;56046;47.270;11.368;2022-08-05T07:08:05;8.93;;;4.13;;
68989;SDS011;56046;47.270;11.368;2022-08-05T07:10:31;5.43;;;3.78;;
68989;SDS011;56046;47.270;11.368;2022-08-05T07:12:56;6.93;;;4.17;;
68989;SDS011;56046;47.270;11.368;2022-08-05T07:15:40;8.70;;;4.13;;
68989;SDS011;56046;47.270;11.368;2022-08-05T07:18:24;5.55;;;3.88;;
68989;SDS011;56046;47.270;11.368;2022-08-05T07:20:49;7.27;;;4.07;;
68989;SDS011;56046;47.270;11.368;2022-08-05T07:23:15;6.03;;;4.10;;
68989;SDS011;56046;47.270;11.368;2022-08-05T07:25:40;5.50;;;3.77;;
68989;SDS011;56046;47.270;11.368;2022-08-05T07:28:05;5.10;;;3.83;;
68989;SDS011;56046;47.270;11.368;2022-08-05T07:30:31;6.18;;;4.00;;
68989;SDS011;56046;47.270;11.368;2022-08-05T07:32:57;5.57;;;4.33;;
68989;SDS011;56046;47.270;11.368;2022-08-05T07:35:22;7.33;;;3.73;;
68989;SDS011;56046;47.270;11.368;2022-08-05T07:37:47;7.90;;;4.38;;
68989;SDS011;56046;47.270;11.368;2022-08-05T07:40:12;5.77;;;3.60;;
68989;SDS011;56046;47.270;11.368;2022-08-05T07:42:38;6.80;;;4.60;;
68989;SDS011;56046;47.270;11.368;2022-08-05T07:45:03;5.70;;;4.40;;
68989;SDS011;56046;47.270;11.368;2022-08-05T07:47:28;8.27;;;4.53;;
68989;SDS011;56046;47.270;11.368;2022-08-05T07:49:54;6.10;;;4.33;;
68989;SDS011;56046;47.270;11.368;2022-08-05T07:52:19;5.77;;;4.17;;
68989;SDS011;56046;47.270;11.368;2022-08-05T07:54:44;5.93;;;4.15;;
68989;SDS011;56046;47.270;11.368;2022-08-05T07:57:10;6.77;;;4.27;;
68989;SDS011;56046;47.270;11.368;2022-08-05T07:59:35;6.87;;;4.50;;
68989;SDS011;56046;47.270;11.368;2022-08-05T08:02:00;6.67;;;4.10;;
68989;SDS011;56046;47.270;11.368;2022-08-05T08:04:27;5.80;;;3.88;;
68989;SDS011;56046;47.270;11.368;2022-08-05T08:06:53;5.50;;;4.15;;
68989;SDS011;56046;47.270;11.368;2022-08-05T08:09:18;6.87;;;4.30;;
68989;SDS011;56046;47.270;11.368;2022-08-05T08:11:44;7.07;;;4.40;;
68989;SDS011;56046;47.270;11.368;2022-08-05T08:14:09;5.73;;;4.00;;
68989;SDS011;56046;47.270;11.368;2022-08-05T08:16:34;5.23;;;3.90;;
68989;SDS011;56046;47.270;11.368;2022-08-05T08:19:00;9.00;;;4.77;;
68989;SDS011;56046;47.270;11.368;2022-08-05T08:21:25;6.07;;;4.20;;
68989;SDS011;56046;47.270;11.368;2022-08-05T08:23:50;5.87;;;3.90;;
68989;SDS011;56046;47.270;11.368;2022-08-05T08:26:16;5.40;;;4.47;;
68989;SDS011;56046;47.270;11.368;2022-08-05T08:28:41;5.70;;;4.27;;
68989;SDS011;56046;47.270;11.368;2022-08-05T08:31:06;7.33;;;4.50;;
68989;SDS011;56046;47.270;11.368;2022-08-05T08:33:31;7.83;;;4.60;;
68989;SDS011;56046;47.270;11.368;2022-08-05T08:35:57;6.27;;;4.83;;
68989;SDS011;56046;47.270;11.368;2022-08-05T08:38:22;8.97;;;4.80;;
68989;SDS011;56046;47.270;11.368;2022-08-05T08:40:47;5.50;;;4.73;;
68989;SDS011;56046;47.270;11.368;2022-08-05T08:43:13;5.68;;;5.07;;
68989;SDS011;56046;47.270;11.368;2022-08-05T08:45:39;5.37;;;4.13;;
68989;SDS011;56046;47.270;11.368;2022-08-05T08:48:05;6.17;;;4.40;;
68989;SDS011;56046;47.270;11.368;2022-08-05T08:50:31;5.80;;;4.50;;
68989;SDS011;56046;47.270;11.368;2022-08-05T08:53:02;5.32;;;4.13;;
68989;SDS011;56046;47.270;11.368;2022-08-05T08:55:27;5.18;;;4.18;;
68989;SDS011;56046;47.270;11.368;2022-08-05T08:57:53;5.80;;;4.40;;
68989;SDS011;56046;47.270;11.368;2022-08-05T09:00:18;5.10;;;4.27;;
68989;SDS011;56046;47.270;11.368;2022-08-05T09:02:43;5.75;;;4.60;;
68989;SDS011;56046;47.270;11.368;2022-08-05T09:05:12;7.03;;;4.87;;
68989;SDS011;56046;47.270;11.368;2022-08-05T09:07:37;5.55;;;4.60;;
68989;SDS011;56046;47.270;11.368;2022-08-05T09:10:03;7.30;;;5.20;;
68989;SDS011;56046;47.270;11.368;2022-08-05T09:12:28;5.97;;;4.80;;
68989;SDS011;56046;47.270;11.368;2022-08-05T09:14:54;6.97;;;5.27;;
68989;SDS011;56046;47.270;11.368;2022-08-05T09:17:19;8.37;;;5.70;;
68989;SDS011;56046;47.270;11.368;2022-08-05T09:19:44;7.90;;;5.07;;
68989;SDS011;56046;47.270;11.368;2022-08-05T09:22:09;7.37;;;5.30;;
68989;SDS011;56046;47.270;11.368;2022-08-05T09:24:35;7.43;;;4.90;;
68989;SDS011;56046;47.270;11.368;2022-08-05T09:27:01;7.75;;;5.18;;
68989;SDS011;56046;47.270;11.368;2022-08-05T09:29:38;6.75;;;4.93;;
68989;SDS011;56046;47.270;11.368;2022-08-05T09:32:05;5.75;;;4.70;;
68989;SDS011;56046;47.270;11.368;2022-08-05T09:34:49;7.63;;;4.60;;
68989;SDS011;56046;47.270;11.368;2022-08-05T09:37:16;7.53;;;4.93;;
68989;SDS011;56046;47.270;11.368;2022-08-05T09:39:41;5.67;;;3.87;;
68989;SDS011;56046;47.270;11.368;2022-08-05T09:42:06;6.50;;;4.03;;
68989;SDS011;56046;47.270;11.368;2022-08-05T09:44:33;7.55;;;5.05;;
68989;SDS011;56046;47.270;11.368;2022-08-05T09:47:15;5.70;;;5.10;;
68989;SDS011;56046;47.270;11.368;2022-08-05T09:49:45;5.97;;;4.80;;
68989;SDS011;56046;47.270;11.368;2022-08-05T09:54:50;8.77;;;4.28;;
68989;SDS011;56046;47.270;11.368;2022-08-05T09:57:49;5.50;;;4.22;;
68989;SDS011;56046;47.270;11.368;2022-08-05T10:00:11;5.43;;;4.07;;
68989;SDS011;56046;47.270;11.368;2022-08-05T10:05:06;7.40;;;5.07;;
68989;SDS011;56046;47.270;11.368;2022-08-05T10:07:42;6.45;;;4.88;;
68989;SDS011;56046;47.270;11.368;2022-08-05T10:10:07;6.80;;;5.30;;
68989;SDS011;56046;47.270;11.368;2022-08-05T10:12:38;7.27;;;5.20;;
68989;SDS011;56046;47.270;11.368;2022-08-05T10:17:41;8.80;;;5.20;;
68989;SDS011;56046;47.270;11.368;2022-08-05T10:20:07;6.70;;;5.13;;
68989;SDS011;56046;47.270;11.368;2022-08-05T10:22:32;7.00;;;4.88;;
68989;SDS011;56046;47.270;11.368;2022-08-05T10:24:57;8.63;;;4.90;;
68989;SDS011;56046;47.270;11.368;2022-08-05T10:27:23;5.67;;;3.90;;
68989;SDS011;56046;47.270;11.368;2022-08-05T10:29:48;5.93;;;4.57;;
68989;SDS011;56046;47.270;11.368;2022-08-05T10:32:14;6.60;;;5.17;;
68989;SDS011;56046;47.270;11.368;2022-08-05T10:34:40;6.37;;;4.73;;
68989;SDS011;56046;47.270;11.368;2022-08-05T10:37:05;5.80;;;4.83;;
68989;SDS011;56046;47.270;11.368;2022-08-05T10:39:32;6.50;;;4.90;;
68989;SDS011;56046;47.270;11.368;2022-08-05T10:42:13;6.35;;;5.20;;
68989;SDS011;56046;47.270;11.368;2022-08-05T10:44:43;6.57;;;5.13;;
68989;SDS011;56046;47.270;11.368;2022-08-05T10:47:12;6.35;;;5.03;;
68989;SDS011;56046;47.270;11.368;2022-08-05T10:50:00;6.87;;;5.07;;
68989;SDS011;56046;47.270;11.368;2022-08-05T10:55:09;6.30;;;5.20;;
68989;SDS011;56046;47.270;11.368;2022-08-05T10:57:35;6.53;;;5.05;;
68989;SDS011;56046;47.270;11.368;2022-08-05T11:02:34;7.57;;;5.05;;
68989;SDS011;56046;47.270;11.368;2022-08-05T11:05:01;10.43;;;5.07;;
68989;SDS011;56046;47.270;11.368;2022-08-05T11:07:28;7.15;;;5.28;;
68989;SDS011;56046;47.270;11.368;2022-08-05T11:09:53;6.17;;;4.57;;
68989;SDS011;56046;47.270;11.368;2022-08-05T11:17:37;7.60;;;5.63;;
68989;SDS011;56046;47.270;11.368;2022-08-05T11:20:06;7.13;;;5.23;;
68989;SDS011;56046;47.270;11.368;2022-08-05T11:27:48;6.40;;;5.32;;
68989;SDS011;56046;47.270;11.368;2022-08-05T11:30:13;7.23;;;6.00;;
68989;SDS011;56046;47.270;11.368;2022-08-05T11:32:39;6.47;;;5.03;;
68989;SDS011;56046;47.270;11.368;2022-08-05T11:35:04;8.10;;;5.43;;
68989;SDS011;56046;47.270;11.368;2022-08-05T11:40:04;7.57;;;5.68;;
68989;SDS011;56046;47.270;11.368;2022-08-05T11:42:33;6.30;;;5.47;;
68989;SDS011;56046;47.270;11.368;2022-08-05T11:45:03;6.82;;;5.57;;
68989;SDS011;56046;47.270;11.368;2022-08-05T11:47:29;6.32;;;5.63;;
68989;SDS011;56046;47.270;11.368;2022-08-05T11:49:55;7.65;;;4.72;;
68989;SDS011;56046;47.270;11.368;2022-08-05T11:52:24;7.30;;;4.68;;
68989;SDS011;56046;47.270;11.368;2022-08-05T11:54:50;6.15;;;5.55;;
68989;SDS011;56046;47.270;11.368;2022-08-05T11:57:16;6.70;;;4.57;;
68989;SDS011;56046;47.270;11.368;2022-08-05T11:59:42;8.63;;;6.03;;
68989;SDS011;56046;47.270;11.368;2022-08-05T12:02:07;6.67;;;5.93;;
68989;SDS011;56046;47.270;11.368;2022-08-05T12:04:40;6.38;;;5.22;;
68989;SDS011;56046;47.270;11.368;2022-08-05T12:07:06;6.67;;;5.90;;
68989;SDS011;56046;47.270;11.368;2022-08-05T12:09:35;6.93;;;5.32;;
68989;SDS011;56046;47.270;11.368;2022-08-05T12:12:00;8.48;;;5.90;;
68989;SDS011;56046;47.270;11.368;2022-08-05T12:14:34;7.47;;;5.83;;
68989;SDS011;56046;47.270;11.368;2022-08-05T12:16:59;6.38;;;5.78;;
68989;SDS011;56046;47.270;11.368;2022-08-05T12:19:30;8.55;;;5.68;;
68989;SDS011;56046;47.270;11.368;2022-08-05T12:22:04;6.93;;;5.53;;
68989;SDS011;56046;47.270;11.368;2022-08-05T12:24:29;6.03;;;4.15;;
68989;SDS011;56046;47.270;11.368;2022-08-05T12:26:55;7.30;;;5.17;;
68989;SDS011;56046;47.270;11.368;2022-08-05T12:31:46;6.50;;;4.83;;
68989;SDS011;56046;47.270;11.368;2022-08-05T12:34:12;6.55;;;5.18;;
68989;SDS011;56046;47.270;11.368;2022-08-05T12:36:37;8.27;;;5.37;;
68989;SDS011;56046;47.270;11.368;2022-08-05T12:39:03;6.28;;;4.70;;
68989;SDS011;56046;47.270;11.368;2022-08-05T12:41:29;6.15;;;3.83;;
68989;SDS011;56046;47.270;11.368;2022-08-05T12:43:56;5.40;;;3.93;;
68989;SDS011;56046;47.270;11.368;2022-08-05T12:46:23;5.73;;;4.70;;
68989;SDS011;56046;47.270;11.368;2022-08-05T12:51:54;7.20;;;4.70;;
68989;SDS011;56046;47.270;11.368;2022-08-05T12:56:51;9.00;;;4.43;;
68989;SDS011;56046;47.270;11.368;2022-08-05T12:59:18;8.95;;;4.68;;
68989;SDS011;56046;47.270;11.368;2022-08-05T13:01:44;9.05;;;4.95;;
68989;SDS011;56046;47.270;11.368;2022-08-05T13:04:10;8.75;;;4.60;;
68989;SDS011;56046;47.270;11.368;2022-08-05T13:06:37;7.37;;;4.40;;
68989;SDS011;56046;47.270;11.368;2022-08-05T13:09:06;7.70;;;4.23;;
68989;SDS011;56046;47.270;11.368;2022-08-05T13:11:32;6.82;;;3.95;;
68989;SDS011;56046;47.270;11.368;2022-08-05T13:13:57;11.23;;;4.37;;
68989;SDS011;56046;47.270;11.368;2022-08-05T13:16:23;10.13;;;5.60;;
68989;SDS011;56046;47.270;11.368;2022-08-05T13:18:54;10.52;;;5.35;;
68989;SDS011;56046;47.270;11.368;2022-08-05T13:21:20;9.23;;;5.40;;
68989;SDS011;56046;47.270;11.368;2022-08-05T13:23:46;7.80;;;4.50;;
68989;SDS011;56046;47.270;11.368;2022-08-05T13:26:11;7.43;;;4.53;;
68989;SDS011;56046;47.270;11.368;2022-08-05T13:28:36;12.70;;;5.67;;
68989;SDS011;56046;47.270;11.368;2022-08-05T13:31:01;11.20;;;5.27;;
68989;SDS011;56046;47.270;11.368;2022-08-05T13:33:27;11.83;;;5.80;;
68989;SDS011;56046;47.270;11.368;2022-08-05T13:35:52;12.67;;;5.63;;
68989;SDS011;56046;47.270;11.368;2022-08-05T13:38:18;12.37;;;6.90;;
68989;SDS011;56046;47.270;11.368;2022-08-05T13:40:43;11.50;;;6.45;;
68989;SDS011;56046;47.270;11.368;2022-08-05T13:43:10;11.63;;;6.35;;
68989;SDS011;56046;47.270;11.368;2022-08-05T13:45:35;11.03;;;6.10;;
68989;SDS011;56046;47.270;11.368;2022-08-05T13:48:01;14.13;;;7.13;;
68989;SDS011;56046;47.270;11.368;2022-08-05T13:50:26;11.67;;;6.43;;
68989;SDS011;56046;47.270;11.368;2022-08-05T13:52:51;15.07;;;7.23;;
68989;SDS011;56046;47.270;11.368;2022-08-05T13:55:16;11.60;;;7.80;;
68989;SDS011;56046;47.270;11.368;2022-08-05T13:57:42;12.20;;;6.80;;
68989;SDS011;56046;47.270;11.368;2022-08-05T14:00:07;9.47;;;6.73;;
68989;SDS011;56046;47.270;11.368;2022-08-05T14:02:32;8.45;;;5.40;;
68989;SDS011;56046;47.270;11.368;2022-08-05T14:04:58;7.03;;;4.47;;
68989;SDS011;56046;47.270;11.368;2022-08-05T14:07:36;9.90;;;6.22;;
68989;SDS011;56046;47.270;11.368;2022-08-05T14:10:04;9.95;;;7.10;;
68989;SDS011;56046;47.270;11.368;2022-08-05T14:12:29;8.53;;;5.73;;
68989;SDS011;56046;47.270;11.368;2022-08-05T14:14:54;9.33;;;6.13;;
68989;SDS011;56046;47.270;11.368;2022-08-05T14:17:19;10.03;;;5.83;;
68989;SDS011;56046;47.270;11.368;2022-08-05T14:19:47;11.30;;;6.47;;
68989;SDS011;56046;47.270;11.368;2022-08-05T14:22:12;9.10;;;5.53;;
68989;SDS011;56046;47.270;11.368;2022-08-05T14:24:38;8.03;;;4.97;;
68989;SDS011;56046;47.270;11.368;2022-08-05T14:27:04;8.37;;;5.60;;
68989;SDS011;56046;47.270;11.368;2022-08-05T14:29:29;9.63;;;7.25;;
68989;SDS011;56046;47.270;11.368;2022-08-05T14:31:54;10.60;;;6.80;;
68989;SDS011;56046;47.270;11.368;2022-08-05T14:34:19;8.67;;;6.30;;
68989;SDS011;56046;47.270;11.368;2022-08-05T14:36:45;7.90;;;5.33;;
68989;SDS011;56046;47.270;11.368;2022-08-05T14:39:10;8.20;;;4.90;;
68989;SDS011;56046;47.270;11.368;2022-08-05T14:41:35;7.70;;;5.00;;
68989;SDS011;56046;47.270;11.368;2022-08-05T14:44:01;8.43;;;5.23;;
68989;SDS011;56046;47.270;11.368;2022-08-05T14:46:27;9.43;;;5.60;;
68989;SDS011;56046;47.270;11.368;2022-08-05T14:48:52;11.27;;;6.03;;
68989;SDS011;56046;47.270;11.368;2022-08-05T14:51:17;9.97;;;6.40;;
68989;SDS011;56046;47.270;11.368;2022-08-05T14:53:43;10.43;;;6.87;;
68989;SDS011;56046;47.270;11.368;2022-08-05T14:56:08;10.77;;;7.47;;
68989;SDS011;56046;47.270;11.368;2022-08-05T14:58:33;10.13;;;6.03;;
68989;SDS011;56046;47.270;11.368;2022-08-05T15:00:58;9.53;;;7.50;;
68989;SDS011;56046;47.270;11.368;2022-08-05T15:03:24;9.53;;;6.40;;
68989;SDS011;56046;47.270;11.368;2022-08-05T15:05:49;9.10;;;6.68;;
68989;SDS011;56046;47.270;11.368;2022-08-05T15:08:14;9.90;;;7.13;;
68989;SDS011;56046;47.270;11.368;2022-08-05T15:10:40;8.33;;;5.40;;
68989;SDS011;56046;47.270;11.368;2022-08-05T15:13:07;9.93;;;6.75;;
68989;SDS011;56046;47.270;11.368;2022-08-05T15:15:32;8.57;;;6.20;;